sensor_id;sensor_type;location;lat;lon;timestamp;temperature;humidity
19610;DHT22;9952;47.122;-1.638;2023-01-06T00:01:39;11.70;99.90
19610;DHT22;9952;47.122;-1.638;2023-01-06T00:06:21;11.70;99.90
19610;DHT22;9952;47.122;-1.638;2023-01-06T00:11:13;11.60;99.90
19610;DHT22;9952;47.122;-1.638;2023-01-06T00:15:55;11.70;99.90
19610;DHT22;9952;47.122;-1.638;2023-01-06T00:20:35;11.70;99.90
19610;DHT22;9952;47.122;-1.638;2023-01-06T00:25:16;11.70;99.90
19610;DHT22;9952;47.122;-1.638;2023-01-06T00:29:57;11.70;99.90
19610;DHT22;9952;47.122;-1.638;2023-01-06T00:34:38;11.70;99.90
19610;DHT22;9952;47.122;-1.638;2023-01-06T00:39:19;11.70;99.90
19610;DHT22;9952;47.122;-1.638;2023-01-06T00:44:00;11.70;99.90
19610;DHT22;9952;47.122;-1.638;2023-01-06T00:48:41;11.70;99.90
19610;DHT22;9952;47.122;-1.638;2023-01-06T00:53:22;11.70;99.90
19610;DHT22;9952;47.122;-1.638;2023-01-06T00:58:03;11.70;99.90
19610;DHT22;9952;47.122;-1.638;2023-01-06T01:02:43;11.70;99.90
19610;DHT22;9952;47.122;-1.638;2023-01-06T01:07:24;11.70;99.90
19610;DHT22;9952;47.122;-1.638;2023-01-06T01:12:05;11.70;99.90
19610;DHT22;9952;47.122;-1.638;2023-01-06T01:16:49;11.70;99.90
19610;DHT22;9952;47.122;-1.638;2023-01-06T01:21:30;11.70;99.90
19610;DHT22;9952;47.122;-1.638;2023-01-06T01:26:12;11.70;99.90
19610;DHT22;9952;47.122;-1.638;2023-01-06T01:31:00;11.80;99.90
19610;DHT22;9952;47.122;-1.638;2023-01-06T01:35:41;11.80;99.90
19610;DHT22;9952;47.122;-1.638;2023-01-06T01:40:22;11.80;99.90
19610;DHT22;9952;47.122;-1.638;2023-01-06T01:45:05;11.90;99.90
19610;DHT22;9952;47.122;-1.638;2023-01-06T01:49:50;11.90;99.90
19610;DHT22;9952;47.122;-1.638;2023-01-06T01:54:33;11.90;99.90
19610;DHT22;9952;47.122;-1.638;2023-01-06T01:59:17;12.00;99.90
19610;DHT22;9952;47.122;-1.638;2023-01-06T02:04:00;12.00;99.90
19610;DHT22;9952;47.122;-1.638;2023-01-06T02:08:52;12.00;99.90
19610;DHT22;9952;47.122;-1.638;2023-01-06T02:13:35;12.10;99.90
19610;DHT22;9952;47.122;-1.638;2023-01-06T02:18:38;12.10;99.90
19610;DHT22;9952;47.122;-1.638;2023-01-06T02:33:17;12.10;99.90
19610;DHT22;9952;47.122;-1.638;2023-01-06T02:38:32;12.20;99.90
19610;DHT22;9952;47.122;-1.638;2023-01-06T02:53:33;12.20;99.90
19610;DHT22;9952;47.122;-1.638;2023-01-06T03:03:17;12.20;99.90
19610;DHT22;9952;47.122;-1.638;2023-01-06T03:08:04;12.30;99.90
19610;DHT22;9952;47.122;-1.638;2023-01-06T03:12:52;12.30;99.90
19610;DHT22;9952;47.122;-1.638;2023-01-06T03:17:36;12.30;99.90
19610;DHT22;9952;47.122;-1.638;2023-01-06T03:22:17;12.30;99.90
19610;DHT22;9952;47.122;-1.638;2023-01-06T03:26:59;12.30;99.90
19610;DHT22;9952;47.122;-1.638;2023-01-06T03:31:56;12.30;99.90
19610;DHT22;9952;47.122;-1.638;2023-01-06T03:36:52;12.30;99.90
19610;DHT22;9952;47.122;-1.638;2023-01-06T03:41:40;12.30;99.90
19610;DHT22;9952;47.122;-1.638;2023-01-06T03:46:47;12.40;99.90
19610;DHT22;9952;47.122;-1.638;2023-01-06T03:56:30;12.30;99.90
19610;DHT22;9952;47.122;-1.638;2023-01-06T04:01:12;12.30;99.90
19610;DHT22;9952;47.122;-1.638;2023-01-06T04:05:53;12.30;99.90
19610;DHT22;9952;47.122;-1.638;2023-01-06T04:10:34;12.30;99.90
19610;DHT22;9952;47.122;-1.638;2023-01-06T04:15:18;12.30;99.90
19610;DHT22;9952;47.122;-1.638;2023-01-06T04:19:59;12.30;99.90
19610;DHT22;9952;47.122;-1.638;2023-01-06T04:24:40;12.30;99.90
19610;DHT22;9952;47.122;-1.638;2023-01-06T04:29:20;12.30;99.90
19610;DHT22;9952;47.122;-1.638;2023-01-06T04:34:01;12.30;99.90
19610;DHT22;9952;47.122;-1.638;2023-01-06T04:38:42;12.30;99.90
19610;DHT22;9952;47.122;-1.638;2023-01-06T04:43:23;12.30;99.90
19610;DHT22;9952;47.122;-1.638;2023-01-06T04:48:04;12.30;99.90
19610;DHT22;9952;47.122;-1.638;2023-01-06T04:52:44;12.30;99.90
19610;DHT22;9952;47.122;-1.638;2023-01-06T04:57:25;12.30;99.90
19610;DHT22;9952;47.122;-1.638;2023-01-06T05:02:06;12.30;99.90
19610;DHT22;9952;47.122;-1.638;2023-01-06T05:06:47;12.30;99.90
19610;DHT22;9952;47.122;-1.638;2023-01-06T05:11:27;12.30;99.90
19610;DHT22;9952;47.122;-1.638;2023-01-06T05:16:11;12.30;99.90
19610;DHT22;9952;47.122;-1.638;2023-01-06T05:20:53;12.20;99.90
19610;DHT22;9952;47.122;-1.638;2023-01-06T05:25:34;12.30;99.90
19610;DHT22;9952;47.122;-1.638;2023-01-06T05:30:15;12.20;99.90
19610;DHT22;9952;47.122;-1.638;2023-01-06T05:34:56;12.20;99.90
19610;DHT22;9952;47.122;-1.638;2023-01-06T05:39:37;12.30;99.90
19610;DHT22;9952;47.122;-1.638;2023-01-06T05:44:18;12.30;99.90
19610;DHT22;9952;47.122;-1.638;2023-01-06T05:48:59;12.30;99.90
19610;DHT22;9952;47.122;-1.638;2023-01-06T05:53:42;12.30;99.90
19610;DHT22;9952;47.122;-1.638;2023-01-06T05:58:23;12.30;99.90
19610;DHT22;9952;47.122;-1.638;2023-01-06T06:03:03;12.30;99.90
19610;DHT22;9952;47.122;-1.638;2023-01-06T06:07:46;12.30;99.90
19610;DHT22;9952;47.122;-1.638;2023-01-06T06:12:31;12.20;99.90
19610;DHT22;9952;47.122;-1.638;2023-01-06T06:17:13;12.20;99.90
19610;DHT22;9952;47.122;-1.638;2023-01-06T06:21:54;12.20;99.90
19610;DHT22;9952;47.122;-1.638;2023-01-06T06:26:35;12.20;99.90
19610;DHT22;9952;47.122;-1.638;2023-01-06T06:31:21;12.20;99.90
19610;DHT22;9952;47.122;-1.638;2023-01-06T06:36:03;12.20;99.90
19610;DHT22;9952;47.122;-1.638;2023-01-06T06:40:44;12.20;99.90
19610;DHT22;9952;47.122;-1.638;2023-01-06T06:45:25;12.20;99.90
19610;DHT22;9952;47.122;-1.638;2023-01-06T06:50:08;12.20;99.90
19610;DHT22;9952;47.122;-1.638;2023-01-06T06:54:49;12.10;99.90
19610;DHT22;9952;47.122;-1.638;2023-01-06T06:59:30;12.20;99.90
19610;DHT22;9952;47.122;-1.638;2023-01-06T07:04:11;12.20;99.90
19610;DHT22;9952;47.122;-1.638;2023-01-06T07:08:52;12.20;99.90
19610;DHT22;9952;47.122;-1.638;2023-01-06T07:13:33;12.20;99.90
19610;DHT22;9952;47.122;-1.638;2023-01-06T07:18:14;12.10;99.90
19610;DHT22;9952;47.122;-1.638;2023-01-06T07:22:55;12.20;99.90
19610;DHT22;9952;47.122;-1.638;2023-01-06T07:27:36;12.20;99.90
19610;DHT22;9952;47.122;-1.638;2023-01-06T07:32:16;12.20;99.90
19610;DHT22;9952;47.122;-1.638;2023-01-06T07:36:57;12.20;99.90
19610;DHT22;9952;47.122;-1.638;2023-01-06T07:41:38;12.10;99.90
19610;DHT22;9952;47.122;-1.638;2023-01-06T07:46:20;12.20;99.90
19610;DHT22;9952;47.122;-1.638;2023-01-06T07:51:02;12.20;99.90
19610;DHT22;9952;47.122;-1.638;2023-01-06T07:55:49;12.20;99.90
19610;DHT22;9952;47.122;-1.638;2023-01-06T08:00:32;12.20;99.90
19610;DHT22;9952;47.122;-1.638;2023-01-06T08:05:14;12.20;99.90
19610;DHT22;9952;47.122;-1.638;2023-01-06T08:09:54;12.20;99.90
19610;DHT22;9952;47.122;-1.638;2023-01-06T08:14:35;12.20;99.90
19610;DHT22;9952;47.122;-1.638;2023-01-06T08:19:21;12.20;99.90
19610;DHT22;9952;47.122;-1.638;2023-01-06T08:24:02;12.30;99.90
19610;DHT22;9952;47.122;-1.638;2023-01-06T08:28:45;12.20;99.90
19610;DHT22;9952;47.122;-1.638;2023-01-06T08:33:26;12.30;99.90
19610;DHT22;9952;47.122;-1.638;2023-01-06T08:38:07;12.30;99.90
19610;DHT22;9952;47.122;-1.638;2023-01-06T08:43:01;12.30;99.90
19610;DHT22;9952;47.122;-1.638;2023-01-06T08:47:41;12.30;99.90
19610;DHT22;9952;47.122;-1.638;2023-01-06T08:52:35;12.30;99.90
19610;DHT22;9952;47.122;-1.638;2023-01-06T08:57:17;12.30;99.90
19610;DHT22;9952;47.122;-1.638;2023-01-06T09:02:00;12.40;99.90
19610;DHT22;9952;47.122;-1.638;2023-01-06T09:06:43;12.30;99.90
19610;DHT22;9952;47.122;-1.638;2023-01-06T09:11:29;12.40;99.90
19610;DHT22;9952;47.122;-1.638;2023-01-06T09:16:13;12.40;99.90
19610;DHT22;9952;47.122;-1.638;2023-01-06T09:20:54;12.40;99.90
19610;DHT22;9952;47.122;-1.638;2023-01-06T09:25:35;12.50;99.90
19610;DHT22;9952;47.122;-1.638;2023-01-06T09:30:16;12.40;99.90
19610;DHT22;9952;47.122;-1.638;2023-01-06T09:34:56;12.50;99.90
19610;DHT22;9952;47.122;-1.638;2023-01-06T09:39:37;12.50;99.90
19610;DHT22;9952;47.122;-1.638;2023-01-06T09:44:24;12.50;99.90
19610;DHT22;9952;47.122;-1.638;2023-01-06T09:49:22;12.40;99.90
19610;DHT22;9952;47.122;-1.638;2023-01-06T09:59:59;12.60;99.90
19610;DHT22;9952;47.122;-1.638;2023-01-06T10:04:25;12.60;99.90
19610;DHT22;9952;47.122;-1.638;2023-01-06T10:25:01;12.90;99.90
19610;DHT22;9952;47.122;-1.638;2023-01-06T10:29:50;12.80;99.90
19610;DHT22;9952;47.122;-1.638;2023-01-06T10:34:32;12.80;99.90
19610;DHT22;9952;47.122;-1.638;2023-01-06T10:39:19;12.80;99.90
19610;DHT22;9952;47.122;-1.638;2023-01-06T10:44:00;12.80;99.90
19610;DHT22;9952;47.122;-1.638;2023-01-06T10:48:41;12.90;99.90
19610;DHT22;9952;47.122;-1.638;2023-01-06T10:53:22;13.00;99.90
19610;DHT22;9952;47.122;-1.638;2023-01-06T11:03:12;13.20;99.90
19610;DHT22;9952;47.122;-1.638;2023-01-06T11:07:54;13.40;99.90
19610;DHT22;9952;47.122;-1.638;2023-01-06T11:12:36;13.70;99.90
19610;DHT22;9952;47.122;-1.638;2023-01-06T11:17:20;13.70;99.90
19610;DHT22;9952;47.122;-1.638;2023-01-06T11:22:01;13.70;99.90
19610;DHT22;9952;47.122;-1.638;2023-01-06T11:26:44;13.60;99.90
19610;DHT22;9952;47.122;-1.638;2023-01-06T11:31:26;13.50;99.90
19610;DHT22;9952;47.122;-1.638;2023-01-06T11:36:10;13.40;99.90
19610;DHT22;9952;47.122;-1.638;2023-01-06T11:40:52;13.40;99.90
19610;DHT22;9952;47.122;-1.638;2023-01-06T11:45:36;13.50;99.90
19610;DHT22;9952;47.122;-1.638;2023-01-06T11:50:18;13.80;99.90
19610;DHT22;9952;47.122;-1.638;2023-01-06T12:04:51;13.90;99.90
19610;DHT22;9952;47.122;-1.638;2023-01-06T12:09:36;14.20;99.90
19610;DHT22;9952;47.122;-1.638;2023-01-06T12:14:20;14.40;99.90
19610;DHT22;9952;47.122;-1.638;2023-01-06T12:19:01;14.70;99.90
19610;DHT22;9952;47.122;-1.638;2023-01-06T12:23:45;14.90;99.90
19610;DHT22;9952;47.122;-1.638;2023-01-06T12:28:30;15.10;99.90
19610;DHT22;9952;47.122;-1.638;2023-01-06T12:33:32;15.00;99.90
19610;DHT22;9952;47.122;-1.638;2023-01-06T12:43:28;14.60;99.90
19610;DHT22;9952;47.122;-1.638;2023-01-06T12:48:17;14.60;99.90
19610;DHT22;9952;47.122;-1.638;2023-01-06T12:53:27;14.70;99.90
19610;DHT22;9952;47.122;-1.638;2023-01-06T13:39:10;14.20;99.90
19610;DHT22;9952;47.122;-1.638;2023-01-06T13:43:53;14.20;99.90
19610;DHT22;9952;47.122;-1.638;2023-01-06T13:48:37;14.20;99.90
19610;DHT22;9952;47.122;-1.638;2023-01-06T13:53:21;14.20;99.90
19610;DHT22;9952;47.122;-1.638;2023-01-06T14:03:20;14.10;99.90
19610;DHT22;9952;47.122;-1.638;2023-01-06T14:08:03;14.20;99.90
19610;DHT22;9952;47.122;-1.638;2023-01-06T14:12:54;14.20;99.90
19610;DHT22;9952;47.122;-1.638;2023-01-06T14:17:39;14.20;99.90
19610;DHT22;9952;47.122;-1.638;2023-01-06T14:22:25;14.30;99.90
19610;DHT22;9952;47.122;-1.638;2023-01-06T14:27:10;14.20;99.90
19610;DHT22;9952;47.122;-1.638;2023-01-06T14:31:53;14.10;99.90
19610;DHT22;9952;47.122;-1.638;2023-01-06T14:36:35;14.10;99.90
19610;DHT22;9952;47.122;-1.638;2023-01-06T14:41:35;14.10;99.90
19610;DHT22;9952;47.122;-1.638;2023-01-06T14:46:37;14.00;99.90
19610;DHT22;9952;47.122;-1.638;2023-01-06T14:51:20;14.00;99.90
19610;DHT22;9952;47.122;-1.638;2023-01-06T14:56:02;14.00;99.90
19610;DHT22;9952;47.122;-1.638;2023-01-06T15:00:45;14.00;99.90
19610;DHT22;9952;47.122;-1.638;2023-01-06T15:05:38;13.90;99.90
19610;DHT22;9952;47.122;-1.638;2023-01-06T15:10:20;13.90;99.90
19610;DHT22;9952;47.122;-1.638;2023-01-06T15:15:34;13.90;99.90
19610;DHT22;9952;47.122;-1.638;2023-01-06T15:20:17;13.90;99.90
19610;DHT22;9952;47.122;-1.638;2023-01-06T15:24:58;13.80;99.90
19610;DHT22;9952;47.122;-1.638;2023-01-06T15:29:49;13.80;99.90
19610;DHT22;9952;47.122;-1.638;2023-01-06T15:34:36;13.80;99.90
19610;DHT22;9952;47.122;-1.638;2023-01-06T15:39:25;13.80;99.90
19610;DHT22;9952;47.122;-1.638;2023-01-06T15:44:21;13.80;99.90
19610;DHT22;9952;47.122;-1.638;2023-01-06T15:49:02;13.70;99.90
19610;DHT22;9952;47.122;-1.638;2023-01-06T15:53:45;13.70;99.90
19610;DHT22;9952;47.122;-1.638;2023-01-06T15:58:29;13.60;99.90
19610;DHT22;9952;47.122;-1.638;2023-01-06T16:03:22;13.60;99.90
19610;DHT22;9952;47.122;-1.638;2023-01-06T16:08:23;13.60;99.90
19610;DHT22;9952;47.122;-1.638;2023-01-06T16:13:26;13.60;99.90
19610;DHT22;9952;47.122;-1.638;2023-01-06T16:18:07;13.50;99.90
19610;DHT22;9952;47.122;-1.638;2023-01-06T16:22:53;13.50;99.90
19610;DHT22;9952;47.122;-1.638;2023-01-06T16:27:34;13.50;99.90
19610;DHT22;9952;47.122;-1.638;2023-01-06T16:32:34;13.50;99.90
19610;DHT22;9952;47.122;-1.638;2023-01-06T16:37:15;13.40;99.90
19610;DHT22;9952;47.122;-1.638;2023-01-06T16:46:39;13.30;99.90
19610;DHT22;9952;47.122;-1.638;2023-01-06T16:51:22;13.30;99.90
19610;DHT22;9952;47.122;-1.638;2023-01-06T16:56:05;13.20;99.90
19610;DHT22;9952;47.122;-1.638;2023-01-06T17:00:48;13.20;99.90
19610;DHT22;9952;47.122;-1.638;2023-01-06T17:05:36;13.20;99.90
19610;DHT22;9952;47.122;-1.638;2023-01-06T17:10:20;13.20;99.90
19610;DHT22;9952;47.122;-1.638;2023-01-06T17:15:01;13.10;99.90
19610;DHT22;9952;47.122;-1.638;2023-01-06T17:19:42;13.10;99.90
19610;DHT22;9952;47.122;-1.638;2023-01-06T17:24:24;13.10;99.90
19610;DHT22;9952;47.122;-1.638;2023-01-06T17:29:13;13.00;99.90
19610;DHT22;9952;47.122;-1.638;2023-01-06T17:33:56;13.10;99.90
19610;DHT22;9952;47.122;-1.638;2023-01-06T17:38:38;13.00;99.90
19610;DHT22;9952;47.122;-1.638;2023-01-06T17:43:33;13.00;99.90
19610;DHT22;9952;47.122;-1.638;2023-01-06T17:48:16;13.10;99.90
19610;DHT22;9952;47.122;-1.638;2023-01-06T17:53:34;13.00;99.90
19610;DHT22;9952;47.122;-1.638;2023-01-06T17:58:39;13.00;99.90
19610;DHT22;9952;47.122;-1.638;2023-01-06T18:03:26;12.90;99.90
19610;DHT22;9952;47.122;-1.638;2023-01-06T18:12:57;12.90;99.90
19610;DHT22;9952;47.122;-1.638;2023-01-06T18:22:59;12.90;99.90
19610;DHT22;9952;47.122;-1.638;2023-01-06T18:27:40;12.90;99.90
19610;DHT22;9952;47.122;-1.638;2023-01-06T18:32:26;12.80;99.90
19610;DHT22;9952;47.122;-1.638;2023-01-06T18:37:08;12.80;99.90
19610;DHT22;9952;47.122;-1.638;2023-01-06T18:46:34;12.80;99.90
19610;DHT22;9952;47.122;-1.638;2023-01-06T18:51:21;12.80;99.90
19610;DHT22;9952;47.122;-1.638;2023-01-06T18:56:03;12.80;99.90
19610;DHT22;9952;47.122;-1.638;2023-01-06T19:00:50;12.70;99.90
19610;DHT22;9952;47.122;-1.638;2023-01-06T19:05:31;12.70;99.90
19610;DHT22;9952;47.122;-1.638;2023-01-06T19:10:26;12.70;99.90
19610;DHT22;9952;47.122;-1.638;2023-01-06T19:15:25;12.70;99.90
19610;DHT22;9952;47.122;-1.638;2023-01-06T19:20:18;12.70;99.90
19610;DHT22;9952;47.122;-1.638;2023-01-06T19:25:06;12.70;99.90
19610;DHT22;9952;47.122;-1.638;2023-01-06T19:29:53;12.60;99.90
19610;DHT22;9952;47.122;-1.638;2023-01-06T19:34:35;12.60;99.90
19610;DHT22;9952;47.122;-1.638;2023-01-06T19:39:37;12.60;99.90
19610;DHT22;9952;47.122;-1.638;2023-01-06T19:44:27;12.60;99.90
19610;DHT22;9952;47.122;-1.638;2023-01-06T19:54:09;12.60;99.90
19610;DHT22;9952;47.122;-1.638;2023-01-06T19:58:53;12.50;99.90
19610;DHT22;9952;47.122;-1.638;2023-01-06T20:03:41;12.50;99.90
19610;DHT22;9952;47.122;-1.638;2023-01-06T20:08:22;12.50;99.90
19610;DHT22;9952;47.122;-1.638;2023-01-06T20:13:03;12.50;99.90
19610;DHT22;9952;47.122;-1.638;2023-01-06T20:17:48;12.50;99.90
19610;DHT22;9952;47.122;-1.638;2023-01-06T20:22:29;12.50;99.90
19610;DHT22;9952;47.122;-1.638;2023-01-06T20:27:10;12.50;99.90
19610;DHT22;9952;47.122;-1.638;2023-01-06T20:31:51;12.40;99.90
19610;DHT22;9952;47.122;-1.638;2023-01-06T20:36:31;12.50;99.90
19610;DHT22;9952;47.122;-1.638;2023-01-06T20:41:12;12.40;99.90
19610;DHT22;9952;47.122;-1.638;2023-01-06T20:45:53;12.40;99.90
19610;DHT22;9952;47.122;-1.638;2023-01-06T20:50:34;12.40;99.90
19610;DHT22;9952;47.122;-1.638;2023-01-06T20:55:15;12.40;99.90
19610;DHT22;9952;47.122;-1.638;2023-01-06T20:59:56;12.40;99.90
19610;DHT22;9952;47.122;-1.638;2023-01-06T21:04:36;12.40;99.90
19610;DHT22;9952;47.122;-1.638;2023-01-06T21:09:17;12.40;99.90
19610;DHT22;9952;47.122;-1.638;2023-01-06T21:13:58;12.30;99.90
19610;DHT22;9952;47.122;-1.638;2023-01-06T21:18:39;12.30;99.90
19610;DHT22;9952;47.122;-1.638;2023-01-06T21:23:19;12.30;99.90
19610;DHT22;9952;47.122;-1.638;2023-01-06T21:28:00;12.30;99.90
19610;DHT22;9952;47.122;-1.638;2023-01-06T21:32:41;12.20;99.90
19610;DHT22;9952;47.122;-1.638;2023-01-06T21:37:22;12.20;99.90
19610;DHT22;9952;47.122;-1.638;2023-01-06T21:42:03;12.20;99.90
19610;DHT22;9952;47.122;-1.638;2023-01-06T21:47:02;12.20;99.90
19610;DHT22;9952;47.122;-1.638;2023-01-06T21:51:43;12.10;99.90
19610;DHT22;9952;47.122;-1.638;2023-01-06T21:56:26;12.10;99.90
19610;DHT22;9952;47.122;-1.638;2023-01-06T22:01:07;12.00;99.90
19610;DHT22;9952;47.122;-1.638;2023-01-06T22:05:48;12.00;99.90
19610;DHT22;9952;47.122;-1.638;2023-01-06T22:10:29;12.00;99.90
19610;DHT22;9952;47.122;-1.638;2023-01-06T22:15:11;12.00;99.90
19610;DHT22;9952;47.122;-1.638;2023-01-06T22:19:53;11.90;99.90
19610;DHT22;9952;47.122;-1.638;2023-01-06T22:24:35;11.90;99.90
19610;DHT22;9952;47.122;-1.638;2023-01-06T22:29:16;11.80;99.90
19610;DHT22;9952;47.122;-1.638;2023-01-06T22:33:56;11.80;99.90
19610;DHT22;9952;47.122;-1.638;2023-01-06T22:38:37;11.80;99.90
19610;DHT22;9952;47.122;-1.638;2023-01-06T22:43:18;11.70;99.90
19610;DHT22;9952;47.122;-1.638;2023-01-06T22:47:59;11.70;99.90
19610;DHT22;9952;47.122;-1.638;2023-01-06T22:52:40;11.60;99.90
19610;DHT22;9952;47.122;-1.638;2023-01-06T22:57:21;11.50;99.90
19610;DHT22;9952;47.122;-1.638;2023-01-06T23:02:02;11.50;99.90
19610;DHT22;9952;47.122;-1.638;2023-01-06T23:06:43;11.40;99.90
19610;DHT22;9952;47.122;-1.638;2023-01-06T23:11:24;11.40;99.90
19610;DHT22;9952;47.122;-1.638;2023-01-06T23:16:13;11.30;99.90
19610;DHT22;9952;47.122;-1.638;2023-01-06T23:21:05;11.20;99.90
19610;DHT22;9952;47.122;-1.638;2023-01-06T23:25:46;11.10;99.90
19610;DHT22;9952;47.122;-1.638;2023-01-06T23:30:27;11.00;99.90
19610;DHT22;9952;47.122;-1.638;2023-01-06T23:35:08;10.90;99.90
19610;DHT22;9952;47.122;-1.638;2023-01-06T23:39:49;10.80;99.90
19610;DHT22;9952;47.122;-1.638;2023-01-06T23:44:32;10.80;99.90
19610;DHT22;9952;47.122;-1.638;2023-01-06T23:49:14;10.80;99.90
19610;DHT22;9952;47.122;-1.638;2023-01-06T23:53:56;10.70;99.90
19610;DHT22;9952;47.122;-1.638;2023-01-06T23:58:38;10.80;99.90
